sensor_id;sensor_type;location;lat;lon;timestamp;pressure;altitude;pressure_sealevel;temperature;humidity
31239;BME280;17871;31.584;74.450;2023-05-10T00:01:12;98004.66;;;26.22;44.05
31239;BME280;17871;31.584;74.450;2023-05-10T00:03:46;98012.84;;;26.02;44.57
31239;BME280;17871;31.584;74.450;2023-05-10T00:06:22;98012.38;;;25.95;44.73
31239;BME280;17871;31.584;74.450;2023-05-10T00:08:56;98014.91;;;25.83;44.83
31239;BME280;17871;31.584;74.450;2023-05-10T00:11:28;98021.09;;;25.82;44.93
31239;BME280;17871;31.584;74.450;2023-05-10T00:14:10;98011.91;;;25.89;44.95
31239;BME280;17871;31.584;74.450;2023-05-10T00:16:49;98011.56;;;25.80;44.79
31239;BME280;17871;31.584;74.450;2023-05-10T00:19:22;98011.56;;;25.80;44.90
31239;BME280;17871;31.584;74.450;2023-05-10T00:21:53;98024.38;;;25.99;44.52
31239;BME280;17871;31.584;74.450;2023-05-10T00:24:24;98019.78;;;25.74;45.10
31239;BME280;17871;31.584;74.450;2023-05-10T00:26:55;98026.41;;;25.66;44.85
31239;BME280;17871;31.584;74.450;2023-05-10T00:29:27;98030.22;;;25.60;44.65
31239;BME280;17871;31.584;74.450;2023-05-10T00:31:58;98033.03;;;25.57;44.94
31239;BME280;17871;31.584;74.450;2023-05-10T00:34:30;98028.47;;;25.61;44.74
31239;BME280;17871;31.584;74.450;2023-05-10T00:37:15;98029.84;;;25.66;44.78
31239;BME280;17871;31.584;74.450;2023-05-10T00:39:54;98027.59;;;25.60;44.59
31239;BME280;17871;31.584;74.450;2023-05-10T00:42:27;98037.34;;;25.58;44.74
31239;BME280;17871;31.584;74.450;2023-05-10T00:44:58;98038.16;;;25.59;45.00
31239;BME280;17871;31.584;74.450;2023-05-10T00:47:31;98033.03;;;25.57;45.20
31239;BME280;17871;31.584;74.450;2023-05-10T00:50:05;98039.41;;;25.67;45.17
31239;BME280;17871;31.584;74.450;2023-05-10T00:52:35;98040.13;;;25.55;45.46
31239;BME280;17871;31.584;74.450;2023-05-10T00:55:09;98035.47;;;25.60;45.47
31239;BME280;17871;31.584;74.450;2023-05-10T00:57:38;98037.22;;;25.60;45.98
31239;BME280;17871;31.584;74.450;2023-05-10T01:00:08;98037.81;;;25.49;46.15
31239;BME280;17871;31.584;74.450;2023-05-10T01:02:38;98035.38;;;25.46;46.61
31239;BME280;17871;31.584;74.450;2023-05-10T01:05:08;98036.16;;;25.48;46.78
31239;BME280;17871;31.584;74.450;2023-05-10T01:07:37;98031.00;;;25.47;47.20
31239;BME280;17871;31.584;74.450;2023-05-10T01:10:07;98037.25;;;25.44;47.18
31239;BME280;17871;31.584;74.450;2023-05-10T01:12:39;98034.47;;;25.47;47.44
31239;BME280;17871;31.584;74.450;2023-05-10T01:15:10;98044.94;;;25.47;47.77
31239;BME280;17871;31.584;74.450;2023-05-10T01:18:12;98043.50;;;25.57;48.04
31239;BME280;17871;31.584;74.450;2023-05-10T01:20:48;98045.84;;;25.46;48.46
31239;BME280;17871;31.584;74.450;2023-05-10T01:29:11;98062.91;;;25.53;49.16
31239;BME280;17871;31.584;74.450;2023-05-10T01:32:26;98069.97;;;25.67;48.50
31239;BME280;17871;31.584;74.450;2023-05-10T01:35:20;98065.47;;;25.55;48.34
31239;BME280;17871;31.584;74.450;2023-05-10T01:38:17;98068.38;;;25.64;49.17
31239;BME280;17871;31.584;74.450;2023-05-10T01:40:55;98062.03;;;25.68;49.75
31239;BME280;17871;31.584;74.450;2023-05-10T01:46:47;98073.47;;;25.82;48.88
31239;BME280;17871;31.584;74.450;2023-05-10T01:49:26;98075.72;;;25.88;48.87
31239;BME280;17871;31.584;74.450;2023-05-10T01:52:04;98071.59;;;25.84;49.25
31239;BME280;17871;31.584;74.450;2023-05-10T01:54:37;98076.63;;;25.87;49.00
31239;BME280;17871;31.584;74.450;2023-05-10T01:57:09;98074.41;;;25.95;49.34
31239;BME280;17871;31.584;74.450;2023-05-10T02:02:20;98065.19;;;26.17;48.44
31239;BME280;17871;31.584;74.450;2023-05-10T02:04:50;98070.44;;;26.17;48.50
31239;BME280;17871;31.584;74.450;2023-05-10T02:07:22;98074.72;;;26.33;48.15
31239;BME280;17871;31.584;74.450;2023-05-10T02:09:53;98079.41;;;26.42;48.41
31239;BME280;17871;31.584;74.450;2023-05-10T02:12:23;98080.03;;;26.59;46.59
31239;BME280;17871;31.584;74.450;2023-05-10T02:14:58;98070.88;;;26.66;46.64
31239;BME280;17871;31.584;74.450;2023-05-10T02:17:32;98081.50;;;26.77;46.40
31239;BME280;17871;31.584;74.450;2023-05-10T02:20:07;98083.09;;;26.94;46.57
31239;BME280;17871;31.584;74.450;2023-05-10T02:22:39;98086.06;;;27.02;46.06
31239;BME280;17871;31.584;74.450;2023-05-10T02:25:09;98083.59;;;26.87;45.93
31239;BME280;17871;31.584;74.450;2023-05-10T02:27:41;98081.91;;;26.86;46.10
31239;BME280;17871;31.584;74.450;2023-05-10T02:30:13;98084.81;;;27.08;45.25
31239;BME280;17871;31.584;74.450;2023-05-10T02:32:43;98078.19;;;27.02;44.84
31239;BME280;17871;31.584;74.450;2023-05-10T02:35:13;98087.94;;;27.27;44.82
31239;BME280;17871;31.584;74.450;2023-05-10T02:37:44;98081.63;;;27.44;44.69
31239;BME280;17871;31.584;74.450;2023-05-10T02:40:47;98085.66;;;27.62;43.86
31239;BME280;17871;31.584;74.450;2023-05-10T02:43:17;98089.88;;;27.64;44.19
31239;BME280;17871;31.584;74.450;2023-05-10T02:45:47;98085.69;;;27.87;45.14
31239;BME280;17871;31.584;74.450;2023-05-10T02:48:16;98087.59;;;27.98;43.60
31239;BME280;17871;31.584;74.450;2023-05-10T02:50:46;98080.97;;;28.05;41.42
31239;BME280;17871;31.584;74.450;2023-05-10T02:53:22;98082.16;;;28.13;42.92
31239;BME280;17871;31.584;74.450;2023-05-10T02:55:54;98086.34;;;28.41;42.97
31239;BME280;17871;31.584;74.450;2023-05-10T02:58:26;98092.31;;;28.56;43.74
31239;BME280;17871;31.584;74.450;2023-05-10T03:00:55;98085.88;;;28.60;43.52
31239;BME280;17871;31.584;74.450;2023-05-10T03:03:24;98084.22;;;28.71;42.86
31239;BME280;17871;31.584;74.450;2023-05-10T03:05:53;98075.28;;;28.74;43.04
31239;BME280;17871;31.584;74.450;2023-05-10T03:08:27;98088.88;;;28.92;40.21
31239;BME280;17871;31.584;74.450;2023-05-10T03:14:02;98088.63;;;29.31;41.30
31239;BME280;17871;31.584;74.450;2023-05-10T03:16:46;98082.25;;;29.46;41.67
31239;BME280;17871;31.584;74.450;2023-05-10T03:19:26;98087.59;;;29.57;41.27
31239;BME280;17871;31.584;74.450;2023-05-10T03:21:59;98086.38;;;29.61;38.58
31239;BME280;17871;31.584;74.450;2023-05-10T03:24:36;98093.81;;;29.67;42.33
31239;BME280;17871;31.584;74.450;2023-05-10T03:27:08;98087.81;;;30.00;38.10
31239;BME280;17871;31.584;74.450;2023-05-10T03:29:39;98091.28;;;29.90;37.95
31239;BME280;17871;31.584;74.450;2023-05-10T03:32:09;98089.25;;;30.04;36.98
31239;BME280;17871;31.584;74.450;2023-05-10T03:34:41;98093.13;;;30.22;37.83
31239;BME280;17871;31.584;74.450;2023-05-10T03:37:12;98092.53;;;30.19;35.78
31239;BME280;17871;31.584;74.450;2023-05-10T03:39:41;98096.66;;;30.45;36.32
31239;BME280;17871;31.584;74.450;2023-05-10T03:42:10;98098.56;;;30.54;33.12
31239;BME280;17871;31.584;74.450;2023-05-10T03:44:40;98109.34;;;30.73;31.28
31239;BME280;17871;31.584;74.450;2023-05-10T03:47:09;98100.13;;;30.79;30.99
31239;BME280;17871;31.584;74.450;2023-05-10T03:49:38;98102.94;;;31.09;32.31
31239;BME280;17871;31.584;74.450;2023-05-10T03:52:07;98109.81;;;31.12;30.84
31239;BME280;17871;31.584;74.450;2023-05-10T03:54:36;98108.38;;;31.08;30.80
31239;BME280;17871;31.584;74.450;2023-05-10T03:57:11;98114.34;;;31.21;30.19
31239;BME280;17871;31.584;74.450;2023-05-10T03:59:40;98119.28;;;31.46;29.24
31239;BME280;17871;31.584;74.450;2023-05-10T04:02:09;98115.16;;;31.64;26.78
31239;BME280;17871;31.584;74.450;2023-05-10T04:04:40;98122.47;;;31.93;26.98
31239;BME280;17871;31.584;74.450;2023-05-10T04:07:09;98123.16;;;31.74;26.12
31239;BME280;17871;31.584;74.450;2023-05-10T04:09:39;98121.06;;;32.09;25.27
31239;BME280;17871;31.584;74.450;2023-05-10T04:12:08;98122.97;;;32.28;25.71
31239;BME280;17871;31.584;74.450;2023-05-10T04:14:38;98122.53;;;32.02;25.44
31239;BME280;17871;31.584;74.450;2023-05-10T04:17:07;98121.41;;;32.46;26.10
31239;BME280;17871;31.584;74.450;2023-05-10T04:19:36;98124.44;;;32.62;25.98
31239;BME280;17871;31.584;74.450;2023-05-10T04:22:07;98128.28;;;32.88;26.34
31239;BME280;17871;31.584;74.450;2023-05-10T04:24:43;98128.63;;;33.05;26.67
31239;BME280;17871;31.584;74.450;2023-05-10T04:27:12;98135.41;;;32.98;24.59
31239;BME280;17871;31.584;74.450;2023-05-10T04:29:41;98134.66;;;33.16;25.27
31239;BME280;17871;31.584;74.450;2023-05-10T04:32:10;98132.19;;;32.94;25.30
31239;BME280;17871;31.584;74.450;2023-05-10T04:34:39;98134.53;;;33.18;24.46
31239;BME280;17871;31.584;74.450;2023-05-10T04:37:08;98131.50;;;32.92;25.27
31239;BME280;17871;31.584;74.450;2023-05-10T04:39:37;98128.84;;;33.42;25.53
31239;BME280;17871;31.584;74.450;2023-05-10T04:42:09;98118.94;;;33.34;25.71
31239;BME280;17871;31.584;74.450;2023-05-10T04:44:38;98133.59;;;33.48;25.13
31239;BME280;17871;31.584;74.450;2023-05-10T04:47:10;98121.38;;;33.75;24.81
31239;BME280;17871;31.584;74.450;2023-05-10T04:49:40;98128.75;;;33.81;24.78
31239;BME280;17871;31.584;74.450;2023-05-10T04:52:09;98128.59;;;33.83;24.89
31239;BME280;17871;31.584;74.450;2023-05-10T04:54:39;98122.44;;;33.82;24.97
31239;BME280;17871;31.584;74.450;2023-05-10T04:57:08;98126.19;;;34.09;25.58
31239;BME280;17871;31.584;74.450;2023-05-10T04:59:38;98128.72;;;34.20;25.46
31239;BME280;17871;31.584;74.450;2023-05-10T05:02:07;98135.22;;;34.35;26.65
31239;BME280;17871;31.584;74.450;2023-05-10T05:04:36;98125.28;;;34.47;25.47
31239;BME280;17871;31.584;74.450;2023-05-10T05:07:07;98137.28;;;34.51;25.02
31239;BME280;17871;31.584;74.450;2023-05-10T05:09:36;98123.84;;;34.62;25.06
31239;BME280;17871;31.584;74.450;2023-05-10T05:12:06;98126.03;;;34.76;24.76
31239;BME280;17871;31.584;74.450;2023-05-10T05:14:35;98128.44;;;34.97;24.58
31239;BME280;17871;31.584;74.450;2023-05-10T05:17:04;98124.50;;;34.73;24.22
31239;BME280;17871;31.584;74.450;2023-05-10T05:19:36;98120.84;;;35.02;24.34
31239;BME280;17871;31.584;74.450;2023-05-10T05:22:06;98119.53;;;34.88;24.33
31239;BME280;17871;31.584;74.450;2023-05-10T05:24:37;98122.69;;;35.28;25.48
31239;BME280;17871;31.584;74.450;2023-05-10T05:27:06;98127.00;;;35.47;24.92
31239;BME280;17871;31.584;74.450;2023-05-10T05:29:36;98123.00;;;35.43;23.80
31239;BME280;17871;31.584;74.450;2023-05-10T05:32:05;98123.63;;;35.72;25.31
31239;BME280;17871;31.584;74.450;2023-05-10T05:34:36;98120.25;;;35.88;25.65
31239;BME280;17871;31.584;74.450;2023-05-10T05:37:05;98121.59;;;35.66;24.55
31239;BME280;17871;31.584;74.450;2023-05-10T05:39:36;98121.94;;;35.71;24.88
31239;BME280;17871;31.584;74.450;2023-05-10T05:42:05;98117.25;;;35.83;24.24
31239;BME280;17871;31.584;74.450;2023-05-10T05:44:34;98121.41;;;35.85;24.89
31239;BME280;17871;31.584;74.450;2023-05-10T05:47:06;98125.69;;;36.04;24.72
31239;BME280;17871;31.584;74.450;2023-05-10T05:49:38;98120.16;;;35.98;24.71
31239;BME280;17871;31.584;74.450;2023-05-10T05:52:08;98116.97;;;36.12;24.22
31239;BME280;17871;31.584;74.450;2023-05-10T05:54:37;98120.03;;;35.99;23.96
31239;BME280;17871;31.584;74.450;2023-05-10T05:57:08;98118.94;;;36.10;23.39
31239;BME280;17871;31.584;74.450;2023-05-10T05:59:37;98110.16;;;36.43;23.48
31239;BME280;17871;31.584;74.450;2023-05-10T06:02:11;98109.66;;;36.14;22.56
31239;BME280;17871;31.584;74.450;2023-05-10T06:04:40;98102.50;;;36.40;23.64
31239;BME280;17871;31.584;74.450;2023-05-10T06:07:11;98102.81;;;36.63;23.84
31239;BME280;17871;31.584;74.450;2023-05-10T06:09:40;98106.13;;;36.57;23.69
31239;BME280;17871;31.584;74.450;2023-05-10T06:12:09;98091.97;;;36.56;22.80
31239;BME280;17871;31.584;74.450;2023-05-10T06:14:40;98093.69;;;36.39;23.22
31239;BME280;17871;31.584;74.450;2023-05-10T06:17:09;98100.41;;;36.85;22.42
31239;BME280;17871;31.584;74.450;2023-05-10T06:19:38;98098.22;;;37.15;23.50
31239;BME280;17871;31.584;74.450;2023-05-10T06:22:07;98099.34;;;37.04;22.49
31239;BME280;17871;31.584;74.450;2023-05-10T06:24:36;98093.53;;;37.17;23.10
31239;BME280;17871;31.584;74.450;2023-05-10T06:27:06;98096.53;;;37.22;23.20
31239;BME280;17871;31.584;74.450;2023-05-10T06:29:35;98095.91;;;37.36;22.32
31239;BME280;17871;31.584;74.450;2023-05-10T06:32:05;98092.22;;;37.29;22.14
31239;BME280;17871;31.584;74.450;2023-05-10T06:34:34;98091.75;;;37.33;22.51
31239;BME280;17871;31.584;74.450;2023-05-10T06:37:04;98083.91;;;37.40;22.58
31239;BME280;17871;31.584;74.450;2023-05-10T06:39:33;98084.19;;;37.13;22.84
31239;BME280;17871;31.584;74.450;2023-05-10T06:42:04;98077.91;;;37.30;22.73
31239;BME280;17871;31.584;74.450;2023-05-10T06:44:33;98074.75;;;37.42;23.17
31239;BME280;17871;31.584;74.450;2023-05-10T06:50:20;98074.94;;;37.65;23.31
31239;BME280;17871;31.584;74.450;2023-05-10T06:52:49;98070.44;;;37.50;23.32
31239;BME280;17871;31.584;74.450;2023-05-10T06:55:19;98059.28;;;37.70;22.77
31239;BME280;17871;31.584;74.450;2023-05-10T06:57:48;98066.63;;;37.60;23.14
31239;BME280;17871;31.584;74.450;2023-05-10T07:00:19;98060.28;;;37.61;23.50
31239;BME280;17871;31.584;74.450;2023-05-10T07:02:48;98065.72;;;37.35;24.06
31239;BME280;17871;31.584;74.450;2023-05-10T07:05:18;98059.91;;;37.24;24.01
31239;BME280;17871;31.584;74.450;2023-05-10T07:07:49;98068.63;;;37.50;23.31
31239;BME280;17871;31.584;74.450;2023-05-10T07:10:18;98055.28;;;37.58;23.57
31239;BME280;17871;31.584;74.450;2023-05-10T07:12:47;98063.94;;;37.76;23.35
31239;BME280;17871;31.584;74.450;2023-05-10T07:15:16;98061.63;;;37.57;24.19
31239;BME280;17871;31.584;74.450;2023-05-10T07:17:53;98057.13;;;37.66;23.88
31239;BME280;17871;31.584;74.450;2023-05-10T07:20:29;98049.09;;;37.90;24.03
31239;BME280;17871;31.584;74.450;2023-05-10T07:23:11;98053.84;;;38.27;24.28
31239;BME280;17871;31.584;74.450;2023-05-10T07:25:49;98041.28;;;37.97;23.37
31239;BME280;17871;31.584;74.450;2023-05-10T07:28:41;98039.91;;;38.01;24.02
31239;BME280;17871;31.584;74.450;2023-05-10T07:31:17;98046.16;;;38.40;23.79
31239;BME280;17871;31.584;74.450;2023-05-10T07:34:05;98043.44;;;37.93;23.08
31239;BME280;17871;31.584;74.450;2023-05-10T07:36:41;98031.47;;;38.36;23.19
31239;BME280;17871;31.584;74.450;2023-05-10T07:39:17;98045.72;;;38.36;22.31
31239;BME280;17871;31.584;74.450;2023-05-10T07:45:09;98030.81;;;38.34;22.96
31239;BME280;17871;31.584;74.450;2023-05-10T07:47:45;98027.84;;;38.29;22.79
31239;BME280;17871;31.584;74.450;2023-05-10T07:50:22;98026.03;;;38.68;23.37
31239;BME280;17871;31.584;74.450;2023-05-10T07:52:52;98023.78;;;38.49;23.62
31239;BME280;17871;31.584;74.450;2023-05-10T07:57:45;98029.41;;;38.62;23.46
31239;BME280;17871;31.584;74.450;2023-05-10T08:00:41;98019.34;;;38.64;23.65
31239;BME280;17871;31.584;74.450;2023-05-10T08:03:59;98025.25;;;38.60;22.60
31239;BME280;17871;31.584;74.450;2023-05-10T08:06:56;98011.75;;;38.84;23.33
31239;BME280;17871;31.584;74.450;2023-05-10T08:10:13;98021.09;;;38.80;23.01
31239;BME280;17871;31.584;74.450;2023-05-10T08:13:32;98002.88;;;38.91;23.60
31239;BME280;17871;31.584;74.450;2023-05-10T08:16:48;97995.22;;;38.88;23.21
31239;BME280;17871;31.584;74.450;2023-05-10T08:19:41;98000.78;;;39.02;23.00
31239;BME280;17871;31.584;74.450;2023-05-10T08:22:57;97998.47;;;38.99;21.65
31239;BME280;17871;31.584;74.450;2023-05-10T08:26:13;97988.91;;;39.04;21.66
31239;BME280;17871;31.584;74.450;2023-05-10T08:29:11;97986.56;;;38.78;21.09
31239;BME280;17871;31.584;74.450;2023-05-10T08:32:04;97995.13;;;38.97;22.26
31239;BME280;17871;31.584;74.450;2023-05-10T08:34:58;97993.88;;;38.76;21.75
31239;BME280;17871;31.584;74.450;2023-05-10T08:37:30;97988.22;;;38.79;20.84
31239;BME280;17871;31.584;74.450;2023-05-10T08:40:26;97978.38;;;39.03;20.68
31239;BME280;17871;31.584;74.450;2023-05-10T08:43:04;97980.25;;;39.25;21.33
31239;BME280;17871;31.584;74.450;2023-05-10T08:45:41;97977.50;;;38.87;22.51
31239;BME280;17871;31.584;74.450;2023-05-10T08:48:50;97980.00;;;38.89;23.22
31239;BME280;17871;31.584;74.450;2023-05-10T08:52:11;97964.00;;;39.04;21.77
31239;BME280;17871;31.584;74.450;2023-05-10T08:55:08;97963.56;;;38.69;21.69
31239;BME280;17871;31.584;74.450;2023-05-10T08:58:53;97950.22;;;39.15;21.43
31239;BME280;17871;31.584;74.450;2023-05-10T09:01:50;97941.22;;;39.16;20.00
31239;BME280;17871;31.584;74.450;2023-05-10T09:04:48;97946.66;;;39.00;19.39
31239;BME280;17871;31.584;74.450;2023-05-10T09:08:06;97941.38;;;39.14;21.05
31239;BME280;17871;31.584;74.450;2023-05-10T09:11:25;97925.41;;;39.43;21.21
31239;BME280;17871;31.584;74.450;2023-05-10T09:14:23;97934.28;;;39.21;21.06
31239;BME280;17871;31.584;74.450;2023-05-10T09:17:20;97918.63;;;39.18;20.86
31239;BME280;17871;31.584;74.450;2023-05-10T09:19:56;97918.97;;;39.38;21.57
31239;BME280;17871;31.584;74.450;2023-05-10T09:22:32;97922.91;;;39.05;21.25
31239;BME280;17871;31.584;74.450;2023-05-10T09:25:25;97924.00;;;38.96;20.59
31239;BME280;17871;31.584;74.450;2023-05-10T09:28:54;97914.31;;;38.95;21.28
31239;BME280;17871;31.584;74.450;2023-05-10T09:32:12;97914.88;;;39.05;22.20
31239;BME280;17871;31.584;74.450;2023-05-10T09:35:31;97926.44;;;38.74;21.37
31239;BME280;17871;31.584;74.450;2023-05-10T09:38:25;97910.31;;;38.90;20.67
31239;BME280;17871;31.584;74.450;2023-05-10T09:41:42;97898.72;;;38.75;21.48
31239;BME280;17871;31.584;74.450;2023-05-10T09:44:35;97897.25;;;38.96;21.71
31239;BME280;17871;31.584;74.450;2023-05-10T09:47:34;97904.56;;;38.48;20.39
31239;BME280;17871;31.584;74.450;2023-05-10T09:50:29;97897.09;;;38.43;21.03
31239;BME280;17871;31.584;74.450;2023-05-10T09:53:01;97891.31;;;38.85;20.13
31239;BME280;17871;31.584;74.450;2023-05-10T09:55:40;97882.47;;;38.85;20.37
31239;BME280;17871;31.584;74.450;2023-05-10T09:58:37;97888.78;;;38.61;20.73
31239;BME280;17871;31.584;74.450;2023-05-10T10:01:11;97885.75;;;38.41;20.64
31239;BME280;17871;31.584;74.450;2023-05-10T10:03:45;97882.25;;;38.41;20.97
31239;BME280;17871;31.584;74.450;2023-05-10T10:06:19;97880.72;;;38.69;21.67
31239;BME280;17871;31.584;74.450;2023-05-10T10:09:12;97871.16;;;38.21;20.56
31239;BME280;17871;31.584;74.450;2023-05-10T10:12:08;97875.78;;;38.27;20.74
31239;BME280;17871;31.584;74.450;2023-05-10T10:15:01;97874.91;;;38.35;20.49
31239;BME280;17871;31.584;74.450;2023-05-10T10:17:53;97869.38;;;38.67;20.30
31239;BME280;17871;31.584;74.450;2023-05-10T10:20:47;97873.25;;;38.42;21.17
31239;BME280;17871;31.584;74.450;2023-05-10T10:23:16;97857.75;;;38.07;21.06
31239;BME280;17871;31.584;74.450;2023-05-10T10:26:15;97872.81;;;38.22;20.40
31239;BME280;17871;31.584;74.450;2023-05-10T10:36:00;97858.50;;;38.15;20.67
31239;BME280;17871;31.584;74.450;2023-05-10T10:38:56;97856.22;;;38.35;20.72
31239;BME280;17871;31.584;74.450;2023-05-10T10:41:55;97860.69;;;38.12;20.35
31239;BME280;17871;31.584;74.450;2023-05-10T10:45:13;97853.66;;;38.19;20.32
31239;BME280;17871;31.584;74.450;2023-05-10T10:47:45;97847.94;;;38.30;20.24
31239;BME280;17871;31.584;74.450;2023-05-10T10:50:14;97845.56;;;38.27;20.37
31239;BME280;17871;31.584;74.450;2023-05-10T10:52:45;97848.47;;;38.17;20.54
31239;BME280;17871;31.584;74.450;2023-05-10T10:55:17;97847.09;;;38.29;19.53
31239;BME280;17871;31.584;74.450;2023-05-10T10:57:52;97842.66;;;38.14;19.47
31239;BME280;17871;31.584;74.450;2023-05-10T11:00:29;97838.63;;;38.18;19.63
31239;BME280;17871;31.584;74.450;2023-05-10T11:03:12;97835.50;;;38.45;20.27
31239;BME280;17871;31.584;74.450;2023-05-10T11:05:50;97833.69;;;38.60;20.72
31239;BME280;17871;31.584;74.450;2023-05-10T11:08:32;97838.91;;;38.54;20.48
31239;BME280;17871;31.584;74.450;2023-05-10T11:11:06;97839.56;;;38.33;19.56
31239;BME280;17871;31.584;74.450;2023-05-10T11:13:42;97831.19;;;38.36;18.85
31239;BME280;17871;31.584;74.450;2023-05-10T11:16:22;97840.06;;;38.28;19.84
31239;BME280;17871;31.584;74.450;2023-05-10T11:19:02;97842.38;;;38.31;20.04
31239;BME280;17871;31.584;74.450;2023-05-10T11:21:32;97837.91;;;38.24;19.75
31239;BME280;17871;31.584;74.450;2023-05-10T11:24:02;97847.72;;;38.39;20.57
31239;BME280;17871;31.584;74.450;2023-05-10T11:26:35;97840.72;;;38.30;19.89
31239;BME280;17871;31.584;74.450;2023-05-10T11:29:05;97828.47;;;38.44;20.68
31239;BME280;17871;31.584;74.450;2023-05-10T11:31:34;97831.19;;;38.36;19.68
31239;BME280;17871;31.584;74.450;2023-05-10T11:34:03;97836.44;;;38.21;19.18
31239;BME280;17871;31.584;74.450;2023-05-10T11:36:36;97841.66;;;38.15;19.00
31239;BME280;17871;31.584;74.450;2023-05-10T11:39:06;97823.22;;;38.28;18.87
31239;BME280;17871;31.584;74.450;2023-05-10T11:41:39;97827.34;;;38.38;19.50
31239;BME280;17871;31.584;74.450;2023-05-10T11:44:09;97821.22;;;38.30;18.92
31239;BME280;17871;31.584;74.450;2023-05-10T11:46:39;97824.53;;;38.09;19.60
31239;BME280;17871;31.584;74.450;2023-05-10T11:49:08;97826.56;;;38.30;19.45
31239;BME280;17871;31.584;74.450;2023-05-10T11:51:37;97827.16;;;38.40;19.40
31239;BME280;17871;31.584;74.450;2023-05-10T11:54:09;97828.91;;;38.25;19.63
31239;BME280;17871;31.584;74.450;2023-05-10T11:56:40;97823.97;;;38.14;18.90
31239;BME280;17871;31.584;74.450;2023-05-10T11:59:10;97824.06;;;37.98;19.51
31239;BME280;17871;31.584;74.450;2023-05-10T12:01:39;97821.38;;;38.06;19.89
31239;BME280;17871;31.584;74.450;2023-05-10T12:04:08;97822.50;;;38.11;20.02
31239;BME280;17871;31.584;74.450;2023-05-10T12:06:40;97820.97;;;38.17;19.89
31239;BME280;17871;31.584;74.450;2023-05-10T12:09:10;97823.97;;;38.14;20.69
31239;BME280;17871;31.584;74.450;2023-05-10T12:11:40;97828.66;;;38.12;20.34
31239;BME280;17871;31.584;74.450;2023-05-10T12:14:11;97817.44;;;37.85;20.34
31239;BME280;17871;31.584;74.450;2023-05-10T12:16:40;97814.81;;;37.77;20.59
31239;BME280;17871;31.584;74.450;2023-05-10T12:19:12;97822.63;;;37.79;20.36
31239;BME280;17871;31.584;74.450;2023-05-10T12:21:41;97832.81;;;37.75;20.62
31239;BME280;17871;31.584;74.450;2023-05-10T12:24:10;97825.69;;;37.68;19.45
31239;BME280;17871;31.584;74.450;2023-05-10T12:26:39;97816.94;;;37.82;20.40
31239;BME280;17871;31.584;74.450;2023-05-10T12:29:25;97823.91;;;37.60;20.13
31239;BME280;17871;31.584;74.450;2023-05-10T12:32:01;97811.00;;;37.72;19.90
31239;BME280;17871;31.584;74.450;2023-05-10T12:34:33;97821.38;;;37.59;20.17
31239;BME280;17871;31.584;74.450;2023-05-10T12:37:04;97816.41;;;37.56;20.49
31239;BME280;17871;31.584;74.450;2023-05-10T12:39:43;97817.38;;;37.63;21.21
31239;BME280;17871;31.584;74.450;2023-05-10T12:42:13;97827.94;;;37.40;20.67
31239;BME280;17871;31.584;74.450;2023-05-10T12:44:42;97826.59;;;37.36;20.80
31239;BME280;17871;31.584;74.450;2023-05-10T12:47:11;97818.31;;;37.31;21.16
31239;BME280;17871;31.584;74.450;2023-05-10T12:49:40;97823.00;;;37.21;21.49
31239;BME280;17871;31.584;74.450;2023-05-10T12:52:09;97813.81;;;37.15;21.19
31239;BME280;17871;31.584;74.450;2023-05-10T12:54:38;97817.31;;;37.16;21.54
31239;BME280;17871;31.584;74.450;2023-05-10T12:57:07;97817.34;;;37.08;21.46
31239;BME280;17871;31.584;74.450;2023-05-10T12:59:36;97810.34;;;37.07;21.98
31239;BME280;17871;31.584;74.450;2023-05-10T13:02:06;97811.34;;;36.98;22.80
31239;BME280;17871;31.584;74.450;2023-05-10T13:04:35;97811.19;;;36.75;22.17
31239;BME280;17871;31.584;74.450;2023-05-10T13:07:08;97806.34;;;36.62;22.55
31239;BME280;17871;31.584;74.450;2023-05-10T13:09:37;97812.84;;;36.52;22.75
31239;BME280;17871;31.584;74.450;2023-05-10T13:12:06;97812.97;;;36.50;22.80
31239;BME280;17871;31.584;74.450;2023-05-10T13:14:36;97813.81;;;36.34;22.78
31239;BME280;17871;31.584;74.450;2023-05-10T13:17:06;97813.81;;;36.34;22.97
31239;BME280;17871;31.584;74.450;2023-05-10T13:19:35;97818.78;;;36.29;22.60
31239;BME280;17871;31.584;74.450;2023-05-10T14:06:03;97825.78;;;34.42;27.74
31239;BME280;17871;31.584;74.450;2023-05-10T14:08:34;97830.22;;;34.33;27.98
31239;BME280;17871;31.584;74.450;2023-05-10T14:11:04;97826.25;;;34.20;28.23
31239;BME280;17871;31.584;74.450;2023-05-10T14:13:34;97825.19;;;34.13;29.16
31239;BME280;17871;31.584;74.450;2023-05-10T14:16:04;97823.28;;;34.05;29.41
31239;BME280;17871;31.584;74.450;2023-05-10T14:18:35;97827.19;;;34.01;29.27
31239;BME280;17871;31.584;74.450;2023-05-10T14:21:05;97825.03;;;33.87;29.10
31239;BME280;17871;31.584;74.450;2023-05-10T14:23:35;97825.09;;;33.77;29.92
31239;BME280;17871;31.584;74.450;2023-05-10T14:26:05;97831.53;;;33.75;29.54
31239;BME280;17871;31.584;74.450;2023-05-10T14:28:35;97822.63;;;33.66;29.96
31239;BME280;17871;31.584;74.450;2023-05-10T14:31:05;97829.91;;;33.64;30.56
31239;BME280;17871;31.584;74.450;2023-05-10T14:33:35;97828.78;;;33.57;30.28
31239;BME280;17871;31.584;74.450;2023-05-10T14:36:05;97831.34;;;33.49;29.98
31239;BME280;17871;31.584;74.450;2023-05-10T14:38:38;97831.59;;;33.65;29.92
31239;BME280;17871;31.584;74.450;2023-05-10T14:41:08;97836.69;;;33.30;30.46
31239;BME280;17871;31.584;74.450;2023-05-10T14:43:43;97837.16;;;33.25;30.79
31239;BME280;17871;31.584;74.450;2023-05-10T14:46:12;97840.91;;;33.23;30.67
31239;BME280;17871;31.584;74.450;2023-05-10T14:48:42;97845.94;;;33.26;29.90
31239;BME280;17871;31.584;74.450;2023-05-10T14:51:13;97855.41;;;33.28;29.75
31239;BME280;17871;31.584;74.450;2023-05-10T14:53:53;97850.13;;;33.19;30.28